Impacts TAF Board
For situational awareness. Not to be used for flight planning purposes.
IDs:

KBPT - Beaumont/SE Texas Rg, TX, US

Issued at 2321 UTC 02 Oct 2022
Updated at 2323 UTC 02 Oct 2022
Potential Impact None Slight Moderate High
Time2253Z 03/00Z 03/01Z 03/02Z 03/03Z 03/04Z 03/05Z 03/06Z 03/07Z 03/08Z 03/09Z 03/10Z 03/11Z 03/12Z>>
Type OBS PRVL PRVL PRVL PRVL PRVL PRVL PRVL PRVL PRVL PRVL PRVL PRVL PRVL
VIS 10 >6 >6 >6 >6 >6 >6 >6 >6 >6 >6 >6 >6 >6
CIG -- -- -- -- -- -- -- -- -- -- -- -- -- --
Cover CLR FEW FEW FEW FEW FEW FEW FEW FEW FEW FEW FEW FEW FEW
FltCat VFR VFR VFR VFR VFR VFR VFR VFR VFR VFR VFR VFR VFR VFR
WX -- -- -- -- -- -- -- -- -- -- -- -- -- --
WDir 50 20 VRB VRB VRB VRB VRB VRB VRB VRB VRB VRB VRB VRB
WSpd 6 8 3 3 3 3 3 3 3 3 3 3 3 3
WGst -- -- -- -- -- -- -- -- -- -- -- -- -- --
WSHgt -- -- -- -- -- -- -- -- -- -- -- -- -- --
WSDir -- -- -- -- -- -- -- -- -- -- -- -- -- --
WSSpd -- -- -- -- -- -- -- -- -- -- -- -- -- --
R12/30
XWnd 6 8 VRB VRB VRB VRB VRB VRB VRB VRB VRB VRB VRB VRB
HWnd 2 -2 VRB VRB VRB VRB VRB VRB VRB VRB VRB VRB VRB VRB
R16/34
XWnd 5 4 VRB VRB VRB VRB VRB VRB VRB VRB VRB VRB VRB VRB
HWnd -3 -7 VRB VRB VRB VRB VRB VRB VRB VRB VRB VRB VRB VRB
Raw TAF
KBPT 022321Z 0300/0324 02008KT P6SM FEW250
  FM030100 VRB03KT P6SM FEW250
  FM031500 05009KT P6SM SKC


Raw METAR
KBPT 022253Z 05006KT 10SM CLR 28/08 A3006 RMK AO2 SLP177 T02830078 $
KBPT 022153Z VRB05KT 10SM CLR 30/08 A3005 RMK AO2 SLP175 T03000078 $
KBPT 022053Z 04008G14KT 10SM CLR 30/08 A3005 RMK AO2 SLP176 T03000083 56020 $

METAR Board
Radar Display
Forecast Discussion
For situational awareness. Not to be used for flight planning purposes.